createdAt,value
2018-09-30T00:00:51.823Z,2.67
2018-09-30T00:03:19.117Z,3.87
2018-09-30T00:05:46.512Z,2.20
2018-09-30T00:08:14.417Z,2.75
2018-09-30T00:10:41.655Z,2.20
2018-09-30T00:13:09.519Z,3.10
2018-09-30T00:15:36.815Z,3.52
2018-09-30T00:18:04.051Z,3.62
2018-09-30T00:20:31.281Z,4.45
2018-09-30T00:22:58.516Z,2.75
2018-09-30T00:25:31.682Z,6.47
2018-09-30T00:27:58.921Z,6.70
2018-09-30T00:30:26.146Z,9.93
2018-09-30T00:32:53.508Z,1.90
2018-09-30T00:35:20.765Z,2.55
2018-09-30T00:37:47.988Z,5.97
2018-09-30T00:40:15.253Z,4.03
2018-09-30T00:42:42.503Z,6.37
2018-09-30T00:45:09.756Z,4.00
2018-09-30T00:47:37.005Z,3.75
2018-09-30T00:50:05.304Z,4.00
2018-09-30T00:52:32.533Z,3.83
2018-09-30T00:54:59.776Z,2.65
2018-09-30T00:57:27.068Z,4.20
2018-09-30T00:59:54.300Z,3.60
2018-09-30T01:02:21.531Z,3.17
2018-09-30T01:04:49.542Z,5.72
2018-09-30T01:07:16.822Z,6.30
2018-09-30T01:09:44.042Z,4.12
2018-09-30T01:12:11.313Z,3.90
2018-09-30T01:14:38.611Z,2.25
2018-09-30T01:17:05.853Z,3.52
2018-09-30T01:19:33.077Z,2.77
2018-09-30T01:22:00.477Z,4.20
2018-09-30T01:24:27.764Z,7.17
2018-09-30T01:26:54.980Z,3.30
2018-09-30T01:29:22.500Z,2.75
2018-09-30T01:31:49.728Z,3.08
2018-09-30T01:34:16.960Z,3.35
2018-09-30T01:36:44.208Z,2.27
2018-09-30T01:39:11.425Z,2.33
2018-09-30T01:41:38.651Z,6.90
2018-09-30T01:44:05.877Z,4.08
2018-09-30T01:46:33.107Z,3.40
2018-09-30T01:49:00.356Z,4.08
2018-09-30T01:51:27.634Z,2.72
2018-09-30T01:53:54.937Z,4.53
2018-09-30T01:56:22.123Z,5.75
2018-09-30T01:58:49.345Z,4.78
2018-09-30T02:01:16.581Z,2.85
2018-09-30T02:03:43.816Z,4.30
2018-09-30T02:06:11.596Z,10.35
2018-09-30T02:08:38.868Z,6.45
2018-09-30T02:11:06.116Z,3.87
2018-09-30T02:13:33.342Z,5.12
2018-09-30T02:16:00.593Z,3.80
2018-09-30T02:18:27.815Z,3.20
2018-09-30T02:20:55.053Z,5.20
2018-09-30T02:23:22.283Z,10.53
2018-09-30T02:25:49.535Z,6.20
2018-09-30T02:28:17.772Z,7.65
2018-09-30T02:30:44.996Z,9.15
2018-09-30T02:33:12.203Z,6.87
2018-09-30T02:35:39.500Z,4.60
2018-09-30T02:38:06.736Z,3.60
2018-09-30T02:40:34.016Z,2.77
2018-09-30T02:43:01.488Z,3.25
2018-09-30T02:45:28.725Z,3.30
2018-09-30T02:47:55.948Z,6.20
2018-09-30T02:50:23.246Z,3.08
2018-09-30T02:52:50.608Z,4.53
2018-09-30T02:55:17.860Z,4.85
2018-09-30T02:57:45.106Z,5.03
2018-09-30T03:00:12.357Z,4.17
2018-09-30T03:02:39.648Z,3.37
2018-09-30T03:05:06.892Z,3.02
2018-09-30T03:07:39.974Z,5.45
2018-09-30T03:10:07.847Z,6.70
2018-09-30T03:12:35.052Z,3.75
2018-09-30T03:15:02.344Z,3.58
2018-09-30T03:17:29.575Z,6.47
2018-09-30T03:19:56.815Z,4.22
2018-09-30T03:22:24.051Z,5.05
2018-09-30T03:24:51.296Z,6.75
2018-09-30T03:27:18.513Z,3.12
2018-09-30T03:29:45.773Z,7.75
2018-09-30T03:32:13.133Z,2.42
2018-09-30T03:34:40.368Z,3.75
2018-09-30T03:37:07.616Z,4.37
2018-09-30T03:39:34.950Z,3.27
2018-09-30T03:42:02.196Z,4.40
2018-09-30T03:44:29.392Z,2.77
2018-09-30T03:46:56.628Z,5.25
2018-09-30T03:49:24.020Z,3.67
2018-09-30T03:51:51.256Z,3.83
2018-09-30T03:54:18.497Z,3.15
2018-09-30T03:56:45.794Z,4.35
2018-09-30T03:59:13.237Z,7.33
2018-09-30T04:01:40.461Z,7.08
2018-09-30T04:04:07.691Z,4.87
2018-09-30T04:06:34.924Z,4.35
2018-09-30T04:09:02.229Z,5.03
2018-09-30T04:11:29.476Z,2.80
2018-09-30T04:13:56.752Z,5.37
2018-09-30T04:16:23.995Z,6.47
2018-09-30T04:18:52.251Z,5.05
2018-09-30T04:21:19.468Z,8.00
2018-09-30T04:23:46.681Z,7.67
2018-09-30T04:26:13.910Z,6.47
2018-09-30T04:28:41.137Z,7.58
2018-09-30T04:31:08.382Z,21.05
2018-09-30T04:33:35.613Z,3.50
2018-09-30T04:36:03.346Z,5.03
2018-09-30T04:38:30.585Z,4.90
2018-09-30T04:40:57.813Z,4.72
2018-09-30T04:43:25.033Z,6.80
2018-09-30T04:45:52.259Z,3.40
2018-09-30T04:48:19.512Z,6.17
2018-09-30T04:50:46.741Z,5.25
2018-09-30T04:53:14.033Z,5.80
2018-09-30T04:55:41.228Z,4.58
2018-09-30T04:58:09.507Z,5.15
2018-09-30T05:00:36.760Z,9.50
2018-09-30T05:03:04.011Z,6.28
2018-09-30T05:05:31.227Z,6.62
2018-09-30T05:07:58.480Z,9.98
2018-09-30T05:10:25.860Z,8.40
2018-09-30T05:12:53.079Z,8.93
2018-09-30T05:17:43.968Z,7.70
2018-09-30T05:20:11.188Z,6.87
2018-09-30T05:22:38.431Z,7.10
2018-09-30T05:25:05.709Z,13.95
2018-09-30T05:27:32.949Z,9.78
2018-09-30T05:30:00.344Z,4.62
2018-09-30T05:32:27.563Z,5.90
2018-09-30T05:34:54.780Z,5.60
2018-09-30T05:37:22.022Z,8.98
2018-09-30T05:39:49.299Z,9.65
2018-09-30T05:42:16.522Z,4.50
2018-09-30T05:44:43.773Z,4.80
2018-09-30T05:47:11.025Z,6.08
2018-09-30T05:49:38.292Z,5.75
2018-09-30T05:52:05.560Z,9.20
2018-09-30T05:54:32.792Z,6.40
2018-09-30T05:57:00.061Z,9.20
2018-09-30T05:59:27.356Z,6.33
2018-09-30T06:01:54.596Z,7.70
2018-09-30T06:04:21.883Z,5.08
2018-09-30T06:06:49.131Z,8.25
2018-09-30T06:09:16.576Z,4.40
2018-09-30T06:11:45.107Z,5.03
2018-09-30T06:14:13.058Z,9.23
2018-09-30T06:16:40.185Z,5.75
2018-09-30T06:19:07.452Z,5.53
2018-09-30T06:21:34.685Z,7.30
2018-09-30T06:24:02.136Z,13.25
2018-09-30T06:26:29.368Z,5.53
2018-09-30T06:28:56.944Z,4.92
2018-09-30T06:31:24.210Z,12.95
2018-09-30T06:33:51.533Z,6.30
2018-09-30T06:36:18.752Z,7.00
2018-09-30T06:38:45.989Z,4.28
2018-09-30T06:41:13.256Z,3.90
2018-09-30T06:43:40.505Z,7.03
2018-09-30T06:46:08.069Z,5.03
2018-09-30T06:48:35.302Z,4.80
2018-09-30T06:51:02.571Z,5.67
2018-09-30T06:53:30.085Z,3.55
2018-09-30T06:55:57.549Z,4.62
2018-09-30T06:58:24.810Z,4.40
2018-09-30T07:00:52.060Z,5.28
2018-09-30T07:03:19.307Z,3.90
2018-09-30T07:05:46.532Z,4.78
2018-09-30T07:08:14.121Z,5.05
2018-09-30T07:10:41.381Z,5.80
2018-09-30T07:13:08.592Z,5.53
2018-09-30T07:15:35.828Z,5.03
2018-09-30T07:18:03.077Z,6.80
2018-09-30T07:20:30.336Z,5.13
2018-09-30T07:22:57.692Z,4.80
2018-09-30T07:25:25.040Z,3.27
2018-09-30T07:27:52.294Z,3.75
2018-09-30T07:30:19.537Z,4.13
2018-09-30T07:32:46.821Z,10.83
2018-09-30T07:35:14.089Z,4.67
2018-09-30T07:37:41.348Z,6.37
2018-09-30T07:40:08.593Z,7.80
2018-09-30T07:42:35.808Z,8.40
2018-09-30T07:45:03.112Z,7.90
2018-09-30T07:47:31.131Z,5.90
2018-09-30T07:49:58.408Z,6.93
2018-09-30T07:52:25.647Z,9.20
2018-09-30T07:54:52.923Z,8.17
2018-09-30T07:57:20.181Z,6.37
2018-09-30T07:59:47.416Z,8.83
2018-09-30T08:02:14.644Z,6.63
2018-09-30T08:04:42.872Z,5.10
2018-09-30T08:07:10.151Z,7.10
2018-09-30T08:09:37.388Z,11.60
2018-09-30T08:12:04.622Z,7.00
2018-09-30T08:14:31.845Z,25.90
2018-09-30T08:17:00.148Z,21.80
2018-09-30T08:19:27.342Z,22.43
2018-09-30T08:21:54.595Z,25.13
2018-09-30T08:24:22.270Z,23.60
2018-09-30T08:26:49.468Z,21.33
2018-09-30T08:29:16.680Z,27.73
2018-09-30T08:31:43.949Z,23.57
2018-09-30T08:34:11.177Z,25.47
2018-09-30T08:36:38.493Z,22.10
2018-09-30T08:39:06.860Z,24.87
2018-09-30T08:41:34.062Z,23.47
2018-09-30T08:44:01.664Z,23.50
2018-09-30T08:46:28.900Z,22.27
2018-09-30T08:48:56.132Z,23.60
2018-09-30T08:51:23.348Z,26.20
2018-09-30T08:53:50.653Z,23.97
2018-09-30T08:56:17.856Z,21.80
2018-09-30T08:58:45.088Z,23.50
2018-09-30T09:01:12.343Z,25.60
2018-09-30T09:03:39.572Z,22.20
2018-09-30T09:06:06.824Z,24.10
2018-09-30T09:08:34.061Z,19.97
2018-09-30T09:11:01.331Z,23.27
2018-09-30T09:13:28.572Z,20.00
2018-09-30T09:15:55.806Z,22.13
2018-09-30T09:18:23.040Z,23.10
2018-09-30T09:20:50.283Z,18.77
2018-09-30T09:23:17.540Z,26.63
2018-09-30T09:25:45.789Z,19.47
2018-09-30T09:28:13.142Z,19.97
2018-09-30T09:30:40.433Z,19.73
2018-09-30T09:33:07.733Z,23.67
2018-09-30T09:35:34.919Z,19.60
2018-09-30T09:38:02.189Z,19.43
2018-09-30T09:40:29.425Z,26.23
2018-09-30T09:42:56.729Z,21.50
2018-09-30T09:45:23.987Z,21.00
2018-09-30T09:47:52.336Z,23.90
2018-09-30T09:50:19.604Z,20.73
2018-09-30T09:52:46.861Z,22.10
2018-09-30T09:55:14.097Z,18.40
2018-09-30T09:57:41.356Z,18.13
2018-09-30T10:00:08.955Z,19.53
2018-09-30T10:02:36.181Z,20.77
2018-09-30T10:05:03.699Z,17.83
2018-09-30T10:07:30.892Z,18.50
2018-09-30T10:09:58.128Z,20.27
2018-09-30T10:12:26.387Z,17.90
2018-09-30T10:14:53.614Z,15.73
2018-09-30T10:17:20.834Z,18.37
2018-09-30T10:19:48.108Z,20.73
2018-09-30T10:22:15.348Z,16.20
2018-09-30T10:24:42.580Z,15.17
2018-09-30T10:27:09.796Z,19.17
2018-09-30T10:29:37.032Z,15.37
2018-09-30T10:32:04.284Z,20.33
2018-09-30T10:34:31.496Z,14.00
2018-09-30T10:36:58.770Z,16.97
2018-09-30T10:39:25.999Z,18.83
2018-09-30T10:41:53.225Z,16.03
2018-09-30T10:44:20.459Z,20.27
2018-09-30T10:46:47.691Z,16.33
2018-09-30T10:49:14.923Z,17.23
2018-09-30T10:51:42.164Z,16.73
2018-09-30T10:54:09.410Z,17.57
2018-09-30T10:56:43.354Z,18.70
2018-09-30T10:59:10.554Z,14.20
2018-09-30T11:01:37.799Z,16.93
2018-09-30T11:04:05.018Z,16.90
2018-09-30T11:06:32.268Z,17.40
2018-09-30T11:08:59.488Z,16.67
2018-09-30T11:11:26.724Z,14.43
2018-09-30T11:13:54.108Z,16.37
2018-09-30T11:16:21.341Z,12.30
2018-09-30T11:18:48.576Z,13.70
2018-09-30T11:21:16.810Z,15.43
2018-09-30T11:23:44.060Z,15.63
2018-09-30T11:26:11.268Z,14.80
2018-09-30T11:28:38.537Z,15.60
2018-09-30T11:31:05.953Z,12.83
2018-09-30T11:33:33.169Z,13.57
2018-09-30T11:36:00.584Z,13.37
2018-09-30T11:38:27.816Z,12.80
2018-09-30T11:40:55.106Z,12.20
2018-09-30T11:43:22.593Z,12.23
2018-09-30T11:45:49.828Z,13.23
2018-09-30T11:48:17.063Z,20.50
2018-09-30T11:50:44.306Z,13.60
2018-09-30T11:53:11.563Z,13.73
2018-09-30T11:55:38.780Z,13.37
2018-09-30T11:58:06.009Z,12.63
2018-09-30T12:00:33.273Z,12.33
2018-09-30T12:03:00.583Z,13.80
2018-09-30T12:05:27.815Z,13.70
2018-09-30T12:07:55.078Z,12.10
2018-09-30T12:10:22.365Z,14.70
2018-09-30T12:12:49.665Z,11.90
2018-09-30T12:15:16.932Z,9.60
2018-09-30T12:17:44.178Z,10.23
2018-09-30T12:20:11.404Z,12.53
2018-09-30T12:22:38.693Z,12.37
2018-09-30T12:25:05.949Z,11.80
2018-09-30T12:27:33.196Z,9.97
2018-09-30T12:30:00.460Z,9.70
2018-09-30T12:32:27.668Z,9.67
2018-09-30T12:34:54.984Z,8.30
2018-09-30T12:37:22.321Z,9.27
2018-09-30T12:39:49.554Z,10.07
2018-09-30T12:42:16.776Z,8.80
2018-09-30T12:44:44.835Z,9.23
2018-09-30T12:47:12.146Z,9.67
2018-09-30T12:49:39.408Z,9.33
2018-09-30T12:52:06.665Z,9.60
2018-09-30T12:54:33.892Z,8.83
2018-09-30T12:57:01.251Z,7.40
2018-09-30T12:59:28.483Z,8.33
2018-09-30T13:01:55.708Z,9.40
2018-09-30T13:04:23.040Z,10.43
2018-09-30T13:06:50.329Z,9.07
2018-09-30T13:09:17.569Z,10.20
2018-09-30T13:11:44.818Z,8.40
2018-09-30T13:14:12.052Z,8.93
2018-09-30T13:16:39.319Z,8.50
2018-09-30T13:19:06.548Z,7.17
2018-09-30T13:21:33.765Z,8.93
2018-09-30T13:24:01.044Z,7.43
2018-09-30T13:26:28.278Z,8.90
2018-09-30T13:28:55.503Z,13.50
2018-09-30T13:31:23.324Z,7.80
2018-09-30T13:33:50.557Z,8.50
2018-09-30T13:36:18.856Z,7.53
2018-09-30T13:38:46.083Z,8.27
2018-09-30T13:41:13.408Z,8.20
2018-09-30T13:43:40.556Z,12.07
2018-09-30T13:46:10.388Z,6.80
2018-09-30T13:48:43.948Z,7.50
2018-09-30T13:51:11.164Z,7.70
2018-09-30T13:53:38.457Z,7.73
2018-09-30T13:56:05.694Z,8.83
2018-09-30T13:58:32.940Z,7.43
2018-09-30T14:01:00.156Z,9.40
2018-09-30T14:03:27.390Z,7.63
2018-09-30T14:05:54.624Z,8.37
2018-09-30T14:08:21.862Z,8.07
2018-09-30T14:10:49.100Z,7.27
2018-09-30T14:13:16.321Z,7.60
2018-09-30T14:15:43.536Z,7.50
2018-09-30T14:18:10.776Z,6.47
2018-09-30T14:20:38.000Z,7.40
2018-09-30T14:23:05.229Z,6.93
2018-09-30T14:25:32.495Z,6.93
2018-09-30T14:28:00.325Z,8.93
2018-09-30T14:30:27.732Z,5.43
2018-09-30T14:32:54.984Z,5.03
2018-09-30T14:35:22.208Z,6.20
2018-09-30T14:37:49.416Z,6.50
2018-09-30T14:40:16.621Z,5.80
2018-09-30T14:42:43.846Z,6.37
2018-09-30T14:45:11.056Z,6.30
2018-09-30T14:47:38.272Z,7.37
2018-09-30T14:50:05.561Z,6.07
2018-09-30T14:52:32.760Z,5.10
2018-09-30T14:55:00.006Z,5.00
2018-09-30T14:57:27.631Z,5.17
2018-09-30T14:59:54.836Z,5.03
2018-09-30T15:02:22.088Z,5.50
2018-09-30T15:04:49.326Z,5.50
2018-09-30T15:07:16.554Z,4.53
2018-09-30T15:09:43.777Z,4.47
2018-09-30T15:12:10.996Z,5.23
2018-09-30T15:14:38.233Z,4.63
2018-09-30T15:17:05.452Z,5.20
2018-09-30T15:19:32.683Z,5.00
2018-09-30T15:21:59.924Z,5.00
2018-09-30T15:24:27.145Z,4.40
2018-09-30T15:26:54.371Z,4.67
2018-09-30T15:29:21.604Z,4.73
2018-09-30T15:31:48.856Z,8.50
2018-09-30T15:34:17.126Z,5.07
2018-09-30T15:36:44.413Z,4.73
2018-09-30T15:39:12.433Z,4.90
2018-09-30T15:41:40.317Z,4.90
2018-09-30T15:44:07.764Z,5.27
2018-09-30T15:46:35.016Z,5.03
2018-09-30T15:49:02.236Z,5.03
2018-09-30T15:51:29.475Z,5.43
2018-09-30T15:53:56.752Z,4.60
2018-09-30T15:56:23.981Z,4.37
2018-09-30T15:58:51.194Z,4.37
2018-09-30T16:01:18.448Z,5.23
2018-09-30T16:03:45.656Z,4.90
2018-09-30T16:06:12.896Z,4.83
2018-09-30T16:08:40.110Z,3.97
2018-09-30T16:11:08.348Z,4.27
2018-09-30T16:13:35.590Z,6.07
2018-09-30T16:16:03.036Z,4.60
2018-09-30T16:18:30.285Z,4.50
2018-09-30T16:20:57.555Z,5.30
2018-09-30T16:23:25.420Z,6.83
2018-09-30T16:25:52.669Z,9.90
2018-09-30T16:28:19.907Z,6.07
2018-09-30T16:30:47.136Z,6.40
2018-09-30T16:33:14.353Z,6.17
2018-09-30T16:35:41.584Z,15.97
2018-09-30T16:38:08.840Z,7.37
2018-09-30T16:40:36.048Z,5.57
2018-09-30T16:43:03.288Z,5.90
2018-09-30T16:45:30.540Z,5.80
2018-09-30T16:47:57.813Z,6.20
2018-09-30T16:50:25.085Z,9.70
2018-09-30T16:52:52.309Z,6.57
2018-09-30T16:55:19.554Z,11.53
2018-09-30T16:57:46.801Z,7.70
2018-09-30T17:00:14.073Z,6.90
2018-09-30T17:02:41.312Z,9.33
2018-09-30T17:05:08.551Z,11.20
2018-09-30T17:07:35.795Z,7.10
2018-09-30T17:10:03.056Z,8.60
2018-09-30T17:12:30.289Z,8.03
2018-09-30T17:14:57.557Z,17.83
2018-09-30T17:17:24.803Z,7.23
2018-09-30T17:19:52.034Z,7.97
2018-09-30T17:22:19.314Z,7.80
2018-09-30T17:24:46.536Z,8.43
2018-09-30T17:27:13.782Z,7.47
2018-09-30T17:29:41.008Z,8.20
2018-09-30T17:32:08.276Z,8.50
2018-09-30T17:34:35.549Z,8.40
2018-09-30T17:37:02.806Z,10.07
2018-09-30T17:39:30.029Z,10.20
2018-09-30T17:41:57.256Z,12.37
2018-09-30T17:44:24.493Z,18.43
2018-09-30T17:46:51.736Z,51.23
2018-09-30T17:49:18.964Z,14.03
2018-09-30T17:51:46.192Z,12.13
2018-09-30T17:54:13.461Z,13.17
2018-09-30T17:56:40.697Z,11.27
2018-09-30T17:59:07.923Z,10.30
2018-09-30T18:01:35.166Z,17.30
2018-09-30T18:04:02.464Z,8.73
2018-09-30T18:06:29.664Z,7.97
2018-09-30T18:08:56.912Z,27.23
2018-09-30T18:11:24.141Z,13.27
2018-09-30T18:13:51.373Z,26.33
2018-09-30T18:16:19.656Z,14.00
2018-09-30T18:18:47.944Z,11.60
2018-09-30T18:21:15.168Z,12.87
2018-09-30T18:23:42.423Z,11.60
2018-09-30T18:26:09.653Z,10.60
2018-09-30T18:28:36.872Z,9.87
2018-09-30T18:31:04.143Z,10.00
2018-09-30T18:33:31.367Z,14.57
2018-09-30T18:35:58.651Z,15.37
2018-09-30T18:38:25.887Z,13.03
2018-09-30T18:40:53.148Z,12.07
2018-09-30T18:43:20.392Z,12.40
2018-09-30T18:45:48.821Z,14.83
2018-09-30T18:48:16.060Z,15.57
2018-09-30T18:50:43.310Z,15.10
2018-09-30T18:53:10.723Z,41.47
2018-09-30T18:55:37.968Z,13.77
2018-09-30T18:58:05.224Z,19.73
2018-09-30T19:00:32.584Z,23.50
2018-09-30T19:02:59.933Z,20.63
2018-09-30T19:05:27.315Z,24.87
2018-09-30T19:07:55.080Z,26.27
2018-09-30T19:10:22.345Z,22.50
2018-09-30T19:12:49.589Z,29.97
2018-09-30T19:15:16.825Z,20.47
2018-09-30T19:17:44.107Z,19.40
2018-09-30T19:20:11.473Z,57.03
2018-09-30T19:22:38.747Z,29.13
2018-09-30T19:25:06.023Z,22.00
2018-09-30T19:27:33.204Z,20.60
2018-09-30T19:30:00.588Z,34.80
2018-09-30T19:32:27.803Z,42.30
2018-09-30T19:34:55.056Z,39.77
2018-09-30T19:37:22.497Z,23.37
2018-09-30T19:39:49.744Z,29.30
2018-09-30T19:42:16.979Z,24.73
2018-09-30T19:44:44.196Z,20.07
2018-09-30T19:47:11.436Z,32.50
2018-09-30T19:49:39.196Z,32.50
2018-09-30T19:52:06.916Z,26.73
2018-09-30T19:54:34.196Z,26.43
2018-09-30T19:57:01.605Z,26.43
2018-09-30T19:59:28.860Z,28.33
2018-09-30T20:01:56.096Z,28.47
2018-09-30T20:04:23.304Z,27.67
2018-09-30T20:06:50.525Z,29.60
2018-09-30T20:09:17.844Z,30.73
2018-09-30T20:11:45.024Z,29.60
2018-09-30T20:14:12.256Z,28.13
2018-09-30T20:16:40.525Z,23.50
2018-09-30T20:19:07.740Z,29.43
2018-09-30T20:21:34.976Z,28.87
2018-09-30T20:24:02.587Z,40.67
2018-09-30T20:26:29.809Z,30.20
2018-09-30T20:28:57.065Z,36.20
2018-09-30T20:31:24.276Z,25.37
2018-09-30T20:33:51.528Z,31.57
2018-09-30T20:36:18.760Z,27.73
2018-09-30T20:38:46.053Z,27.60
2018-09-30T20:41:13.326Z,31.63
2018-09-30T20:43:40.541Z,29.83
2018-09-30T20:46:07.800Z,40.43
2018-09-30T20:48:35.067Z,37.80
2018-09-30T20:51:02.365Z,28.60
2018-09-30T20:53:29.593Z,25.97
2018-09-30T20:55:56.896Z,30.30
2018-09-30T20:58:24.071Z,25.50
2018-09-30T21:00:51.404Z,23.67
2018-09-30T21:03:18.658Z,29.03
2018-09-30T21:06:52.386Z,28.60
2018-09-30T21:09:20.669Z,27.57
2018-09-30T21:11:47.920Z,27.33
2018-09-30T21:14:15.213Z,29.00
2018-09-30T21:16:42.553Z,26.00
2018-09-30T21:19:09.821Z,30.30
2018-09-30T21:21:37.061Z,27.10
2018-09-30T21:24:04.316Z,31.83
2018-09-30T21:26:31.579Z,35.90
2018-09-30T21:28:58.848Z,26.03
2018-09-30T21:31:26.252Z,26.00
2018-09-30T21:33:53.600Z,27.03
2018-09-30T21:36:20.833Z,29.47
2018-09-30T21:38:48.064Z,29.97
2018-09-30T21:41:17.388Z,31.87
2018-09-30T21:43:44.621Z,28.73
2018-09-30T21:46:11.872Z,30.90
2018-09-30T21:48:39.160Z,33.57
2018-09-30T21:51:06.380Z,30.83
2018-09-30T21:53:34.040Z,29.47
2018-09-30T21:56:01.272Z,25.63
2018-09-30T21:58:28.512Z,27.00
2018-09-30T22:00:55.756Z,30.50
2018-09-30T22:03:22.998Z,25.33
2018-09-30T22:05:50.224Z,28.87
2018-09-30T22:08:18.124Z,26.67
2018-09-30T22:10:45.372Z,29.23
2018-09-30T22:13:12.934Z,24.20
2018-09-30T22:15:40.496Z,27.30
2018-09-30T22:18:07.739Z,27.20
2018-09-30T22:20:35.024Z,22.50
2018-09-30T22:23:02.286Z,26.73
2018-09-30T22:25:29.596Z,24.00
2018-09-30T22:27:56.857Z,24.03
2018-09-30T22:30:24.069Z,24.07
2018-09-30T22:32:51.464Z,23.00
2018-09-30T22:35:18.835Z,22.00
2018-09-30T22:37:47.215Z,27.10
2018-09-30T22:40:14.481Z,22.77
2018-09-30T22:42:41.735Z,23.23
2018-09-30T22:45:10.008Z,23.43
2018-09-30T22:47:37.259Z,24.40
2018-09-30T22:50:04.689Z,28.47
2018-09-30T22:52:31.940Z,26.60
2018-09-30T22:54:59.177Z,19.30
2018-09-30T22:57:26.553Z,25.23
2018-09-30T22:59:53.793Z,20.17
2018-09-30T23:02:21.067Z,17.60
2018-09-30T23:04:48.407Z,23.67
2018-09-30T23:07:15.646Z,23.30
2018-09-30T23:09:42.868Z,23.57
2018-09-30T23:12:10.151Z,20.23
2018-09-30T23:14:37.413Z,19.80
2018-09-30T23:17:05.363Z,18.30
2018-09-30T23:19:32.618Z,21.37
2018-09-30T23:21:59.892Z,19.10
2018-09-30T23:24:27.120Z,21.70
2018-09-30T23:26:54.422Z,18.90
2018-09-30T23:29:21.676Z,23.07
2018-09-30T23:31:48.900Z,17.73
2018-09-30T23:34:16.167Z,17.67
2018-09-30T23:36:43.409Z,17.67
2018-09-30T23:39:12.201Z,19.30
2018-09-30T23:41:39.437Z,19.87
2018-09-30T23:44:06.801Z,20.50
2018-09-30T23:46:34.250Z,19.33
2018-09-30T23:49:01.632Z,22.97
2018-09-30T23:51:28.883Z,17.70
2018-09-30T23:53:56.212Z,20.00
2018-09-30T23:56:23.492Z,20.47
2018-09-30T23:58:50.721Z,20.47
